createdAt,value
2022-11-13T00:02:52.462Z,94827.20
2022-11-13T00:07:59.290Z,94831.95
2022-11-13T00:13:05.977Z,94826.78
2022-11-13T00:18:12.873Z,94825.63
2022-11-13T00:23:19.663Z,94826.01
2022-11-13T00:28:26.967Z,94822.50
2022-11-13T00:38:43.708Z,94834.48
2022-11-13T00:43:51.371Z,94828.16
2022-11-13T00:48:58.637Z,94825.74
2022-11-13T00:54:05.492Z,94827.47
2022-11-13T00:59:12.703Z,94816.14
2022-11-13T01:04:19.533Z,94812.75
2022-11-13T01:09:26.372Z,94815.97
2022-11-13T01:14:33.377Z,94817.03
2022-11-13T01:19:40.507Z,94816.95
2022-11-13T01:24:47.892Z,94811.52
2022-11-13T01:29:55.227Z,94809.22
2022-11-13T01:35:02.170Z,94805.10
2022-11-13T01:40:09.658Z,94804.27
2022-11-13T01:46:03.133Z,94793.95
2022-11-13T01:51:14.500Z,94805.63
2022-11-13T01:56:21.823Z,94808.50
2022-11-13T02:01:28.704Z,94804.02
2022-11-13T02:06:45.424Z,94810.89
2022-11-13T02:11:53.118Z,94798.06
2022-11-13T02:17:04.946Z,94791.45
2022-11-13T02:22:34.046Z,94782.48
2022-11-13T02:27:52.188Z,94775.27
2022-11-13T02:33:00.874Z,94781.52
2022-11-13T02:38:08.508Z,94768.36
2022-11-13T02:43:15.214Z,94771.89
2022-11-13T02:48:21.874Z,94779.61
2022-11-13T02:53:28.728Z,94778.44
2022-11-13T02:58:35.523Z,94779.67
2022-11-13T03:03:57.407Z,94780.33
2022-11-13T03:08:50.512Z,94781.23
2022-11-13T03:13:57.242Z,94783.12
2022-11-13T03:19:04.646Z,94767.58
2022-11-13T03:24:11.331Z,94750.28
2022-11-13T03:29:18.103Z,94759.46
2022-11-13T03:34:24.906Z,94756.20
2022-11-13T03:39:31.585Z,94746.22
2022-11-13T03:44:38.286Z,94737.27
2022-11-13T03:49:44.987Z,94728.59
2022-11-13T03:54:51.647Z,94724.58
2022-11-13T03:59:58.332Z,94721.48
2022-11-13T04:05:05.298Z,94707.39
2022-11-13T04:10:12.140Z,94701.13
2022-11-13T04:15:19.212Z,94701.10
2022-11-13T04:20:27.507Z,94694.63
2022-11-13T04:25:34.189Z,94685.36
2022-11-13T04:30:40.962Z,94676.43
2022-11-13T04:35:48.761Z,94669.01
2022-11-13T04:40:57.105Z,94664.25
2022-11-13T04:46:03.829Z,94657.01
2022-11-13T04:51:10.532Z,94645.44
2022-11-13T04:56:17.250Z,94642.00
2022-11-13T05:01:24.021Z,94643.34
2022-11-13T05:06:30.645Z,94648.66
2022-11-13T05:11:37.300Z,94650.16
2022-11-13T05:16:44.018Z,94660.67
2022-11-13T05:21:50.690Z,94654.05
2022-11-13T05:26:57.375Z,94663.92
2022-11-13T05:32:04.051Z,94675.78
2022-11-13T05:37:10.756Z,94670.88
2022-11-13T05:42:17.453Z,94694.58
2022-11-13T05:47:24.106Z,94703.73
2022-11-13T05:52:30.810Z,94719.84
2022-11-13T05:57:37.522Z,94730.72
2022-11-13T06:02:44.429Z,94736.30
2022-11-13T06:07:53.842Z,94743.92
2022-11-13T06:13:00.518Z,94757.44
2022-11-13T06:18:07.239Z,94765.78
2022-11-13T06:23:13.884Z,94774.89
2022-11-13T06:28:20.585Z,94780.87
2022-11-13T06:33:27.894Z,94775.23
2022-11-13T06:38:37.256Z,94773.40
2022-11-13T06:43:47.735Z,94768.86
2022-11-13T06:48:54.468Z,94774.63
2022-11-13T06:54:01.139Z,94771.62
2022-11-13T06:59:08.694Z,94759.55
2022-11-13T07:04:15.628Z,94745.35
2022-11-13T07:09:22.357Z,94748.92
2022-11-13T07:14:29.070Z,94740.86
2022-11-13T07:19:35.804Z,94741.84
2022-11-13T07:24:42.883Z,94751.01
2022-11-13T07:29:49.658Z,94757.48
2022-11-13T07:34:56.344Z,94746.53
2022-11-13T07:40:03.678Z,94749.16
2022-11-13T07:45:10.786Z,94745.42
2022-11-13T07:50:17.866Z,94741.94
2022-11-13T07:55:24.658Z,94748.09
2022-11-13T08:00:33.415Z,94749.58
2022-11-13T08:05:40.108Z,94757.95
2022-11-13T08:10:46.813Z,94765.09
2022-11-13T08:15:53.470Z,94762.45
2022-11-13T08:21:02.845Z,94762.16
2022-11-13T08:26:10.337Z,94757.69
2022-11-13T08:31:19.219Z,94772.05
2022-11-13T08:36:25.939Z,94767.94
2022-11-13T08:41:32.625Z,94781.47
2022-11-13T08:46:39.592Z,94785.19
2022-11-13T08:51:46.152Z,94786.17
2022-11-13T08:56:56.695Z,94775.78
2022-11-13T09:02:01.444Z,94788.68
2022-11-13T09:07:08.234Z,94800.38
2022-11-13T09:12:14.976Z,94794.50
2022-11-13T09:17:21.678Z,94792.70
2022-11-13T09:22:28.440Z,94786.70
2022-11-13T09:27:35.032Z,94767.00
2022-11-13T09:32:41.956Z,94772.63
2022-11-13T09:37:50.314Z,94768.19
2022-11-13T09:42:57.494Z,94759.16
2022-11-13T09:48:35.456Z,94743.64
2022-11-13T09:53:44.239Z,94731.83
2022-11-13T09:59:22.943Z,94719.19
2022-11-13T10:04:45.800Z,94718.67
2022-11-13T10:10:37.362Z,94696.45
2022-11-13T10:15:47.215Z,94690.33
2022-11-13T10:20:58.614Z,94685.98
2022-11-13T10:26:18.647Z,94684.08
2022-11-13T10:31:25.458Z,94689.29
2022-11-13T10:36:59.052Z,94688.61
2022-11-13T10:42:06.002Z,94674.92
2022-11-13T10:52:35.129Z,94648.98
2022-11-13T10:57:43.863Z,94659.83
2022-11-13T11:02:52.926Z,94659.39
2022-11-13T11:08:00.798Z,94661.58
2022-11-13T11:13:23.769Z,94661.61
2022-11-13T11:18:40.670Z,94656.95
2022-11-13T11:23:57.870Z,94638.95
2022-11-13T11:29:12.355Z,94636.22
2022-11-13T11:34:23.999Z,94606.92
2022-11-13T11:39:44.006Z,94605.38
2022-11-13T11:44:55.221Z,94608.10
2022-11-13T11:50:03.408Z,94601.54
2022-11-13T11:55:29.579Z,94594.48
2022-11-13T12:00:39.699Z,94584.29
2022-11-13T12:06:10.586Z,94594.02
2022-11-13T12:11:30.622Z,94586.32
2022-11-13T12:17:01.625Z,94587.76
2022-11-13T12:22:16.055Z,94581.79
2022-11-13T12:34:09.878Z,94575.97
2022-11-13T12:39:23.845Z,94577.01
2022-11-13T12:44:31.434Z,94564.59
2022-11-13T12:49:38.828Z,94554.80
2022-11-13T12:54:45.911Z,94538.59
2022-11-13T13:00:03.636Z,94534.86
2022-11-13T13:05:26.930Z,94531.73
2022-11-13T13:10:57.750Z,94524.36
2022-11-13T13:16:09.358Z,94525.16
2022-11-13T13:21:20.671Z,94527.21
2022-11-13T13:26:31.147Z,94524.66
2022-11-13T13:31:42.838Z,94532.02
2022-11-13T13:37:18.035Z,94525.88
2022-11-13T13:42:41.007Z,94519.94
2022-11-13T13:47:51.440Z,94524.71
2022-11-13T13:53:00.174Z,94520.90
2022-11-13T13:58:13.879Z,94517.58
2022-11-13T14:03:25.932Z,94524.22
2022-11-13T14:08:33.024Z,94510.81
2022-11-13T14:13:39.727Z,94511.89
2022-11-13T14:18:46.565Z,94508.45
2022-11-13T14:23:55.750Z,94507.66
2022-11-13T14:29:04.460Z,94503.13
2022-11-13T14:34:15.714Z,94506.05
2022-11-13T14:39:29.854Z,94501.95
2022-11-13T14:44:37.960Z,94492.91
2022-11-13T14:49:44.648Z,94478.45
2022-11-13T14:55:14.153Z,94473.94
2022-11-13T15:00:23.006Z,94482.20
2022-11-13T15:05:30.296Z,94475.73
2022-11-13T15:10:39.049Z,94471.59
2022-11-13T15:15:45.883Z,94475.70
2022-11-13T15:20:53.077Z,94473.69
2022-11-13T15:26:00.055Z,94478.30
2022-11-13T15:31:20.010Z,94468.26
2022-11-13T15:36:26.949Z,94467.63
2022-11-13T15:41:35.131Z,94466.87
2022-11-13T15:46:42.681Z,94466.39
2022-11-13T15:51:50.009Z,94465.73
2022-11-13T15:56:57.306Z,94461.72
2022-11-13T16:02:04.067Z,94458.48
2022-11-13T16:07:21.884Z,94459.94
2022-11-13T16:12:28.926Z,94471.41
2022-11-13T16:17:40.406Z,94474.47
2022-11-13T16:22:48.288Z,94479.44
2022-11-13T16:27:55.474Z,94476.95
2022-11-13T16:33:04.332Z,94485.17
2022-11-13T16:38:16.207Z,94494.95
2022-11-13T16:43:23.520Z,94498.27
2022-11-13T16:48:30.246Z,94496.77
2022-11-13T16:53:37.530Z,94485.66
2022-11-13T16:58:44.745Z,94490.25
2022-11-13T17:03:51.525Z,94485.66
2022-11-13T17:09:00.480Z,94491.45
2022-11-13T17:14:07.359Z,94492.31
2022-11-13T17:19:15.584Z,94486.36
2022-11-13T17:24:22.258Z,94479.99
2022-11-13T17:29:28.945Z,94476.95
2022-11-13T17:34:36.870Z,94484.86
2022-11-13T17:39:43.581Z,94479.88
2022-11-13T17:44:50.301Z,94483.70
2022-11-13T17:50:02.457Z,94485.30
2022-11-13T17:55:07.999Z,94485.78
2022-11-13T18:00:15.850Z,94483.50
2022-11-13T18:05:22.836Z,94486.47
2022-11-13T18:10:29.613Z,94477.43
2022-11-13T18:15:39.370Z,94482.64
2022-11-13T18:20:46.211Z,94476.04
2022-11-13T18:25:53.637Z,94476.05
2022-11-13T18:31:00.912Z,94478.52
2022-11-13T18:36:09.146Z,94479.55
2022-11-13T18:41:23.188Z,94486.88
2022-11-13T18:46:31.479Z,94487.73
2022-11-13T18:51:38.751Z,94481.73
2022-11-13T18:56:46.321Z,94471.06
2022-11-13T19:01:53.264Z,94470.44
2022-11-13T19:07:00.515Z,94465.27
2022-11-13T19:12:08.600Z,94460.44
2022-11-13T19:17:15.262Z,94457.41
2022-11-13T19:22:22.171Z,94459.19
2022-11-13T19:27:28.886Z,94452.43
2022-11-13T19:32:35.703Z,94444.00
2022-11-13T19:37:42.516Z,94434.11
2022-11-13T19:42:49.357Z,94439.81
2022-11-13T19:47:56.874Z,94435.33
2022-11-13T19:53:03.947Z,94436.87
2022-11-13T19:58:10.815Z,94435.89
2022-11-13T20:03:18.202Z,94429.01
2022-11-13T20:08:27.968Z,94422.31
2022-11-13T20:13:42.085Z,94422.80
2022-11-13T20:18:50.121Z,94423.16
2022-11-13T20:23:59.904Z,94419.48
2022-11-13T20:29:07.054Z,94410.30
2022-11-13T20:34:14.925Z,94403.73
2022-11-13T20:39:22.045Z,94397.66
2022-11-13T20:44:29.006Z,94401.33
2022-11-13T20:49:35.715Z,94408.88
2022-11-13T20:54:42.555Z,94412.89
2022-11-13T20:59:49.273Z,94418.69
2022-11-13T21:04:56.053Z,94416.56
2022-11-13T21:10:02.896Z,94423.73
2022-11-13T21:15:10.746Z,94418.03
2022-11-13T21:20:17.945Z,94420.34
2022-11-13T21:25:24.803Z,94418.79
2022-11-13T21:30:31.571Z,94424.59
2022-11-13T21:35:38.955Z,94410.45
2022-11-13T21:40:47.382Z,94408.23
2022-11-13T21:45:54.225Z,94406.39
2022-11-13T21:51:01.711Z,94402.42
2022-11-13T21:56:15.272Z,94389.26
2022-11-13T22:01:18.390Z,94388.63
2022-11-13T22:06:32.181Z,94391.95
2022-11-13T22:11:39.566Z,94392.00
2022-11-13T22:16:48.764Z,94404.92
2022-11-13T22:21:55.958Z,94393.22
2022-11-13T22:27:02.895Z,94399.36
2022-11-13T22:32:10.333Z,94394.08
2022-11-13T22:37:17.118Z,94404.88
2022-11-13T22:42:23.931Z,94403.59
2022-11-13T22:47:35.682Z,94402.00
2022-11-13T22:52:39.940Z,94392.75
2022-11-13T22:57:46.914Z,94382.52
2022-11-13T23:02:53.964Z,94385.56
2022-11-13T23:08:00.678Z,94374.75
2022-11-13T23:13:07.691Z,94359.47
2022-11-13T23:18:15.694Z,94365.51
2022-11-13T23:23:23.556Z,94357.97
2022-11-13T23:28:32.013Z,94362.22
2022-11-13T23:33:39.288Z,94353.92
2022-11-13T23:38:47.262Z,94339.64
2022-11-13T23:44:08.142Z,94336.05
2022-11-13T23:49:03.449Z,94331.28
2022-11-13T23:54:10.284Z,94329.33
2022-11-13T23:59:17.192Z,94343.20
